createdAt,value
2022-12-12T00:02:02.421Z,83.07
2022-12-12T00:04:47.898Z,83.41
2022-12-12T00:07:31.839Z,83.45
2022-12-12T00:10:15.779Z,83.90
2022-12-12T00:12:59.745Z,83.56
2022-12-12T00:15:43.694Z,83.58
2022-12-12T00:18:27.751Z,84.74
2022-12-12T00:21:17.384Z,81.49
2022-12-12T00:24:01.396Z,84.33
2022-12-12T00:26:45.327Z,82.00
2022-12-12T00:29:29.164Z,82.66
2022-12-12T00:32:13.051Z,84.24
2022-12-12T00:34:57.088Z,83.65
2022-12-12T00:37:42.630Z,83.39
2022-12-12T00:40:26.512Z,83.27
2022-12-12T00:43:11.133Z,82.11
2022-12-12T00:45:55.313Z,84.56
2022-12-12T00:48:39.234Z,82.23
2022-12-12T00:51:25.180Z,82.24
2022-12-12T00:54:11.361Z,82.00
2022-12-12T00:56:55.365Z,82.26
2022-12-12T00:59:39.462Z,84.74
2022-12-12T01:02:28.078Z,84.05
2022-12-12T01:05:13.285Z,81.70
2022-12-12T01:07:57.454Z,82.73
2022-12-12T01:10:42.909Z,83.11
2022-12-12T01:13:27.891Z,83.74
2022-12-12T01:16:12.639Z,83.89
2022-12-12T01:18:56.592Z,84.33
2022-12-12T01:21:40.464Z,83.40
2022-12-12T01:24:24.440Z,81.65
2022-12-12T01:27:10.012Z,82.38
2022-12-12T01:29:56.084Z,81.84
2022-12-12T01:32:40.112Z,81.41
2022-12-12T01:35:25.203Z,81.98
2022-12-12T01:38:09.076Z,82.14
2022-12-12T01:40:53.265Z,82.36
2022-12-12T01:43:40.215Z,80.05
2022-12-12T01:46:35.441Z,80.48
2022-12-12T01:49:25.154Z,79.74
2022-12-12T01:52:12.596Z,82.21
2022-12-12T01:54:59.672Z,81.22
2022-12-12T01:57:47.482Z,80.36
2022-12-12T02:00:33.773Z,79.16
2022-12-12T02:03:17.710Z,79.74
2022-12-12T02:06:05.047Z,78.98
2022-12-12T02:08:50.447Z,79.45
2022-12-12T02:11:37.056Z,80.01
2022-12-12T02:14:25.774Z,77.16
2022-12-12T02:17:30.790Z,80.27
2022-12-12T02:20:44.477Z,79.06
2022-12-12T02:24:07.396Z,79.06
2022-12-12T02:27:16.165Z,81.04
2022-12-12T02:30:09.328Z,81.40
2022-12-12T02:33:21.722Z,80.53
2022-12-12T02:36:16.476Z,78.52
2022-12-12T02:39:07.553Z,78.33
2022-12-12T02:41:56.409Z,77.46
2022-12-12T02:44:45.002Z,79.23
2022-12-12T02:47:32.550Z,78.80
2022-12-12T02:50:21.992Z,78.24
2022-12-12T02:53:07.102Z,79.12
2022-12-12T02:56:02.256Z,80.64
2022-12-12T02:58:46.308Z,78.88
2022-12-12T03:01:43.349Z,78.87
2022-12-12T03:04:54.057Z,78.26
2022-12-12T03:07:54.505Z,77.59
2022-12-12T03:10:49.288Z,77.55
2022-12-12T03:13:41.830Z,77.39
2022-12-12T03:16:29.864Z,76.81
2022-12-12T03:19:23.354Z,77.54
2022-12-12T03:22:14.129Z,77.14
2022-12-12T03:25:07.384Z,79.34
2022-12-12T03:27:58.751Z,79.96
2022-12-12T03:30:45.787Z,78.30
2022-12-12T03:33:35.282Z,78.07
2022-12-12T03:36:26.044Z,76.22
2022-12-12T03:39:14.809Z,77.85
2022-12-12T03:42:07.702Z,77.62
2022-12-12T03:44:57.796Z,78.93
2022-12-12T03:47:50.740Z,77.89
2022-12-12T03:50:42.442Z,79.74
2022-12-12T03:53:33.920Z,76.67
2022-12-12T03:56:22.887Z,79.49
2022-12-12T03:59:11.634Z,79.01
2022-12-12T04:02:01.224Z,78.34
2022-12-12T04:04:49.880Z,78.88
2022-12-12T04:07:37.199Z,78.35
2022-12-12T04:10:42.058Z,78.67
2022-12-12T04:13:34.339Z,79.76
2022-12-12T04:16:26.999Z,79.00
2022-12-12T04:19:34.995Z,78.80
2022-12-12T04:22:41.316Z,79.53
2022-12-12T04:25:33.456Z,80.14
2022-12-12T04:28:17.797Z,78.83
2022-12-12T04:31:05.515Z,79.18
2022-12-12T04:33:59.595Z,78.59
2022-12-12T04:36:45.540Z,78.74
2022-12-12T04:39:31.621Z,78.00
2022-12-12T04:42:21.706Z,79.21
2022-12-12T04:45:10.495Z,77.38
2022-12-12T04:47:57.025Z,78.99
2022-12-12T04:50:45.319Z,78.26
2022-12-12T04:53:35.335Z,79.57
2022-12-12T04:56:22.601Z,78.62
2022-12-12T04:59:08.279Z,78.06
2022-12-12T05:02:00.938Z,77.35
2022-12-12T05:04:54.721Z,78.49
2022-12-12T05:07:42.130Z,77.71
2022-12-12T05:10:26.232Z,76.22
2022-12-12T05:13:18.061Z,78.04
2022-12-12T05:16:04.550Z,78.18
2022-12-12T05:18:49.106Z,78.36
2022-12-12T05:21:33.031Z,77.91
2022-12-12T05:24:18.354Z,78.19
2022-12-12T05:27:02.285Z,78.38
2022-12-12T05:29:47.009Z,79.77
2022-12-12T05:32:30.922Z,77.79
2022-12-12T05:35:15.079Z,79.46
2022-12-12T05:37:59.027Z,78.36
2022-12-12T05:40:44.170Z,77.96
2022-12-12T05:43:28.349Z,78.21
2022-12-12T05:46:12.299Z,78.77
2022-12-12T05:48:56.006Z,79.31
2022-12-12T05:51:39.957Z,79.11
2022-12-12T05:54:23.710Z,78.93
2022-12-12T05:57:09.215Z,75.03
2022-12-12T05:59:53.049Z,76.05
2022-12-12T06:02:39.236Z,76.85
2022-12-12T06:05:23.511Z,76.43
2022-12-12T06:08:07.313Z,76.03
2022-12-12T06:10:51.132Z,74.36
2022-12-12T06:13:37.156Z,74.60
2022-12-12T06:16:30.173Z,74.00
2022-12-12T06:19:14.107Z,72.95
2022-12-12T06:21:58.116Z,75.32
2022-12-12T06:24:42.068Z,73.19
2022-12-12T06:27:26.006Z,74.73
2022-12-12T06:30:12.447Z,74.68
2022-12-12T06:32:56.414Z,73.97
2022-12-12T06:35:40.318Z,69.52
2022-12-12T06:38:23.943Z,71.08
2022-12-12T06:41:09.033Z,68.87
2022-12-12T06:43:53.299Z,70.81
2022-12-12T06:46:38.581Z,70.70
2022-12-12T06:49:22.302Z,71.11
2022-12-12T06:52:06.372Z,70.63
2022-12-12T06:54:50.159Z,69.96
2022-12-12T06:57:33.927Z,69.07
2022-12-12T07:00:18.561Z,71.10
2022-12-12T07:03:04.178Z,71.05
2022-12-12T07:05:48.421Z,71.11
2022-12-12T07:08:32.364Z,67.95
2022-12-12T07:11:18.414Z,67.78
2022-12-12T07:14:05.629Z,68.42
2022-12-12T07:16:49.467Z,68.76
2022-12-12T07:19:34.893Z,69.52
2022-12-12T07:22:18.806Z,70.35
2022-12-12T07:25:02.612Z,65.34
2022-12-12T07:27:47.238Z,68.06
2022-12-12T07:30:31.093Z,68.35
2022-12-12T07:33:16.701Z,70.06
2022-12-12T07:36:02.122Z,71.17
2022-12-12T07:38:45.914Z,71.36
2022-12-12T07:41:29.623Z,72.20
2022-12-12T07:44:14.528Z,69.96
2022-12-12T07:46:59.248Z,71.04
2022-12-12T07:49:43.037Z,69.14
2022-12-12T07:52:28.282Z,66.27
2022-12-12T07:55:12.923Z,67.47
2022-12-12T07:57:57.003Z,69.41
2022-12-12T08:00:40.680Z,68.30
2022-12-12T08:03:24.446Z,68.42
2022-12-12T08:06:08.680Z,67.50
2022-12-12T08:08:54.262Z,65.25
2022-12-12T08:11:45.894Z,68.70
2022-12-12T08:14:30.246Z,68.49
2022-12-12T08:17:14.014Z,68.71
2022-12-12T08:19:57.843Z,67.40
2022-12-12T08:22:41.593Z,69.91
2022-12-12T08:25:27.905Z,65.81
2022-12-12T08:28:11.765Z,68.01
2022-12-12T08:30:55.647Z,66.95
2022-12-12T08:33:39.944Z,67.56
2022-12-12T08:36:25.255Z,65.33
2022-12-12T08:39:11.678Z,68.07
2022-12-12T08:41:56.907Z,65.36
2022-12-12T08:44:41.137Z,63.90
2022-12-12T08:47:24.967Z,66.79
2022-12-12T08:50:09.293Z,66.52
2022-12-12T08:52:54.462Z,65.48
2022-12-12T08:55:38.567Z,63.03
2022-12-12T08:58:24.125Z,61.31
2022-12-12T09:01:12.007Z,65.18
2022-12-12T09:03:57.722Z,64.91
2022-12-12T09:06:41.583Z,64.04
2022-12-12T09:09:25.430Z,65.25
2022-12-12T09:12:09.852Z,67.08
2022-12-12T09:14:55.200Z,65.68
2022-12-12T09:17:39.318Z,66.76
2022-12-12T09:20:23.565Z,67.38
2022-12-12T09:23:07.486Z,66.46
2022-12-12T09:25:52.488Z,68.18
2022-12-12T09:28:36.466Z,67.12
2022-12-12T09:31:22.901Z,67.13
2022-12-12T09:34:07.009Z,64.81
2022-12-12T09:36:50.875Z,64.71
2022-12-12T09:39:34.801Z,65.75
2022-12-12T09:42:24.854Z,63.18
2022-12-12T09:45:10.158Z,60.40
2022-12-12T09:48:01.877Z,62.62
2022-12-12T09:50:49.154Z,59.68
2022-12-12T09:53:33.248Z,60.94
2022-12-12T09:56:22.826Z,61.11
2022-12-12T09:59:13.195Z,60.94
2022-12-12T10:02:05.585Z,58.80
2022-12-12T10:04:59.452Z,61.35
2022-12-12T10:07:48.365Z,61.10
2022-12-12T10:10:35.191Z,61.11
2022-12-12T10:13:23.014Z,61.38
2022-12-12T10:16:10.243Z,62.72
2022-12-12T10:19:07.711Z,61.02
2022-12-12T10:21:58.026Z,61.85
2022-12-12T10:24:47.666Z,61.63
2022-12-12T10:27:31.614Z,63.30
2022-12-12T10:30:18.764Z,60.25
2022-12-12T10:33:23.061Z,59.96
2022-12-12T10:36:18.105Z,59.50
2022-12-12T10:39:16.017Z,59.97
2022-12-12T10:42:04.602Z,59.29
2022-12-12T10:45:04.898Z,59.29
2022-12-12T10:47:49.299Z,59.02
2022-12-12T10:50:37.152Z,59.46
2022-12-12T10:53:21.447Z,60.67
2022-12-12T10:56:11.291Z,59.80
2022-12-12T10:58:57.021Z,59.07
2022-12-12T11:02:11.524Z,59.59
2022-12-12T11:04:46.543Z,57.50
2022-12-12T11:07:30.953Z,59.88
2022-12-12T11:10:32.133Z,61.17
2022-12-12T11:13:19.082Z,62.11
2022-12-12T11:16:13.129Z,61.37
2022-12-12T11:19:07.210Z,62.05
2022-12-12T11:21:51.558Z,63.07
2022-12-12T11:24:37.208Z,63.18
2022-12-12T11:27:24.343Z,62.75
2022-12-12T11:30:23.950Z,63.05
2022-12-12T11:33:10.146Z,63.18
2022-12-12T11:35:57.046Z,60.72
2022-12-12T11:38:42.407Z,60.63
2022-12-12T11:41:26.481Z,60.34
2022-12-12T11:44:25.786Z,63.44
2022-12-12T11:47:30.054Z,62.63
2022-12-12T11:50:25.722Z,60.14
2022-12-12T11:53:10.182Z,62.46
2022-12-12T11:56:05.893Z,60.94
2022-12-12T11:59:00.932Z,62.22
2022-12-12T12:01:55.281Z,61.35
2022-12-12T12:04:55.614Z,61.22
2022-12-12T12:07:55.738Z,61.83
2022-12-12T12:10:53.334Z,60.35
2022-12-12T12:13:57.073Z,61.25
2022-12-12T12:16:53.888Z,62.17
2022-12-12T12:19:45.966Z,63.29
2022-12-12T12:22:43.616Z,62.70
2022-12-12T12:25:38.977Z,61.81
2022-12-12T12:28:52.892Z,60.62
2022-12-12T12:31:46.801Z,61.89
2022-12-12T12:34:37.591Z,62.25
2022-12-12T12:37:36.002Z,61.70
2022-12-12T12:40:34.748Z,62.70
2022-12-12T12:43:34.512Z,62.64
2022-12-12T12:46:24.558Z,62.80
2022-12-12T12:49:16.683Z,62.64
2022-12-12T12:52:04.049Z,62.19
2022-12-12T12:54:50.677Z,62.84
2022-12-12T12:57:37.776Z,62.60
2022-12-12T13:00:24.493Z,63.43
2022-12-12T13:03:14.914Z,62.62
2022-12-12T13:06:03.733Z,63.26
2022-12-12T13:08:56.175Z,64.55
2022-12-12T13:11:45.747Z,63.60
2022-12-12T13:14:39.977Z,64.32
2022-12-12T13:17:30.702Z,63.47
2022-12-12T13:20:18.404Z,64.47
2022-12-12T13:23:21.447Z,62.37
2022-12-12T13:26:13.276Z,61.77
2022-12-12T13:29:04.392Z,63.22
2022-12-12T13:32:29.250Z,62.40
2022-12-12T13:35:16.292Z,62.51
2022-12-12T13:38:01.272Z,63.30
2022-12-12T13:40:45.393Z,63.36
2022-12-12T13:43:40.501Z,63.47
2022-12-12T13:46:41.143Z,63.74
2022-12-12T13:49:29.892Z,63.01
2022-12-12T13:52:26.391Z,62.78
2022-12-12T13:55:23.348Z,62.33
2022-12-12T13:58:36.132Z,62.98
2022-12-12T14:01:39.386Z,64.90
2022-12-12T14:04:31.177Z,64.93
2022-12-12T14:07:19.074Z,66.44
2022-12-12T14:10:17.861Z,64.92
2022-12-12T14:13:17.714Z,64.59
2022-12-12T14:16:05.365Z,65.66
2022-12-12T14:19:07.779Z,66.09
2022-12-12T14:21:53.214Z,66.12
2022-12-12T14:24:59.742Z,65.82
2022-12-12T14:28:14.965Z,68.48
2022-12-12T14:31:15.476Z,68.43
2022-12-12T14:34:20.732Z,69.36
2022-12-12T14:37:35.955Z,70.02
2022-12-12T14:40:23.056Z,70.61
2022-12-12T14:43:20.624Z,71.42
2022-12-12T14:46:06.037Z,71.22
2022-12-12T14:48:50.239Z,71.35
2022-12-12T14:51:37.454Z,71.88
2022-12-12T14:54:25.106Z,71.66
2022-12-12T14:57:09.318Z,72.17
2022-12-12T14:59:53.197Z,73.02
2022-12-12T15:02:39.030Z,74.14
2022-12-12T15:05:23.227Z,75.27
2022-12-12T15:08:17.804Z,75.81
2022-12-12T15:11:03.115Z,75.04
2022-12-12T15:13:55.548Z,74.85
2022-12-12T15:16:48.078Z,74.32
2022-12-12T15:19:36.946Z,74.42
2022-12-12T15:22:25.515Z,75.27
2022-12-12T15:25:17.800Z,76.26
2022-12-12T15:28:03.539Z,76.70
2022-12-12T15:30:51.430Z,75.88
2022-12-12T15:33:39.934Z,77.92
2022-12-12T15:36:29.065Z,76.78
2022-12-12T15:39:16.795Z,77.35
2022-12-12T15:42:01.034Z,76.62
2022-12-12T15:44:49.369Z,75.94
2022-12-12T15:47:33.832Z,77.00
2022-12-12T15:50:20.971Z,77.13
2022-12-12T15:53:09.244Z,77.09
2022-12-12T15:55:58.881Z,77.41
2022-12-12T15:58:45.694Z,77.11
2022-12-12T16:01:32.255Z,77.00
2022-12-12T16:04:26.338Z,76.69
2022-12-12T16:07:22.538Z,77.03
2022-12-12T16:10:22.732Z,74.77
2022-12-12T16:13:24.968Z,74.75
2022-12-12T16:16:39.443Z,74.39
2022-12-12T16:19:40.932Z,73.67
2022-12-12T16:22:36.005Z,73.53
2022-12-12T16:25:23.237Z,73.25
2022-12-12T16:28:24.730Z,73.38
2022-12-12T16:31:17.176Z,72.71
2022-12-12T16:34:05.430Z,72.89
2022-12-12T16:36:49.177Z,72.12
2022-12-12T16:39:33.331Z,72.31
2022-12-12T16:42:19.845Z,72.44
2022-12-12T16:45:03.636Z,73.09
2022-12-12T16:47:47.521Z,72.91
2022-12-12T16:50:32.571Z,73.04
2022-12-12T16:53:16.445Z,73.70
2022-12-12T16:56:00.427Z,75.11
2022-12-12T16:58:44.213Z,74.86
2022-12-12T17:01:28.071Z,74.77
2022-12-12T17:04:19.450Z,74.86
2022-12-12T17:07:08.045Z,75.18
2022-12-12T17:09:51.902Z,74.80
2022-12-12T17:12:35.672Z,74.90
2022-12-12T17:15:23.014Z,74.12
2022-12-12T17:18:06.912Z,73.57
2022-12-12T17:20:51.386Z,73.44
2022-12-12T17:23:36.590Z,73.49
2022-12-12T17:26:20.366Z,74.01
2022-12-12T17:29:04.207Z,73.54
2022-12-12T17:31:48.103Z,73.72
2022-12-12T17:34:31.839Z,74.28
2022-12-12T17:37:15.625Z,75.20
2022-12-12T17:40:00.900Z,74.77
2022-12-12T17:42:47.171Z,73.36
2022-12-12T17:45:31.228Z,73.97
2022-12-12T17:48:15.028Z,75.11
2022-12-12T17:51:00.496Z,74.16
2022-12-12T17:53:44.889Z,73.62
2022-12-12T17:56:30.159Z,73.35
2022-12-12T17:59:14.317Z,73.73
2022-12-12T18:01:58.120Z,74.47
2022-12-12T18:04:42.027Z,72.79
2022-12-12T18:07:25.784Z,73.98
2022-12-12T18:10:10.157Z,73.73
2022-12-12T18:12:55.268Z,74.21
2022-12-12T18:15:38.984Z,73.79
2022-12-12T18:18:22.752Z,74.35
2022-12-12T18:21:08.440Z,74.43
2022-12-12T18:23:52.513Z,74.84
2022-12-12T18:26:36.478Z,74.07
2022-12-12T18:29:21.915Z,73.96
2022-12-12T18:32:06.057Z,74.41
2022-12-12T18:34:49.844Z,73.61
2022-12-12T18:37:33.614Z,73.91
2022-12-12T18:40:17.709Z,74.77
2022-12-12T18:43:01.707Z,74.44
2022-12-12T18:45:47.173Z,72.97
2022-12-12T18:48:31.420Z,74.14
2022-12-12T18:51:16.881Z,75.12
2022-12-12T18:54:05.362Z,73.36
2022-12-12T18:56:51.947Z,74.34
2022-12-12T18:59:36.122Z,74.32
2022-12-12T19:02:21.494Z,74.04
2022-12-12T19:05:06.971Z,72.57
2022-12-12T19:07:51.035Z,72.46
2022-12-12T19:10:35.539Z,72.60
2022-12-12T19:13:19.340Z,72.80
2022-12-12T19:16:05.542Z,72.38
2022-12-12T19:18:50.693Z,70.81
2022-12-12T19:21:35.096Z,71.18
2022-12-12T19:24:19.118Z,71.40
2022-12-12T19:27:03.152Z,71.40
2022-12-12T19:29:46.950Z,71.90
2022-12-12T19:32:30.690Z,71.38
2022-12-12T19:35:16.194Z,71.09
2022-12-12T19:37:59.852Z,70.81
2022-12-12T19:40:43.770Z,71.43
2022-12-12T19:43:30.457Z,70.14
2022-12-12T19:46:16.156Z,70.43
2022-12-12T19:49:01.882Z,70.98
2022-12-12T19:51:47.508Z,70.81
2022-12-12T19:54:31.564Z,71.73
2022-12-12T19:57:15.585Z,71.19
2022-12-12T19:59:59.534Z,71.50
2022-12-12T20:02:43.613Z,71.06
2022-12-12T20:05:29.081Z,71.74
2022-12-12T20:08:14.627Z,72.08
2022-12-12T20:11:04.037Z,71.87
2022-12-12T20:13:50.620Z,71.71
2022-12-12T20:16:34.749Z,74.31
2022-12-12T20:19:19.635Z,73.63
2022-12-12T20:22:04.120Z,73.51
2022-12-12T20:24:49.612Z,73.29
2022-12-12T20:27:33.495Z,72.48
2022-12-12T20:30:17.832Z,71.38
2022-12-12T20:33:01.660Z,69.29
2022-12-12T20:35:46.134Z,67.95
2022-12-12T20:38:31.507Z,68.57
2022-12-12T20:41:18.469Z,69.60
2022-12-12T20:44:02.821Z,67.91
2022-12-12T20:46:48.074Z,68.37
2022-12-12T20:49:31.910Z,68.56
2022-12-12T20:52:17.211Z,70.17
2022-12-12T20:55:01.121Z,72.56
2022-12-12T20:57:48.134Z,72.55
2022-12-12T21:00:31.994Z,72.95
2022-12-12T21:03:15.750Z,74.62
2022-12-12T21:06:00.323Z,73.04
2022-12-12T21:08:46.884Z,75.36
2022-12-12T21:11:30.588Z,75.25
2022-12-12T21:14:16.374Z,74.35
2022-12-12T21:17:00.436Z,75.11
2022-12-12T21:19:44.914Z,74.57
2022-12-12T21:22:29.932Z,75.69
2022-12-12T21:25:14.141Z,76.41
2022-12-12T21:27:58.655Z,78.68
2022-12-12T21:30:44.834Z,80.16
2022-12-12T21:33:29.757Z,80.84
2022-12-12T21:36:16.512Z,81.41
2022-12-12T21:39:01.634Z,82.91
2022-12-12T21:41:45.594Z,84.86
2022-12-12T21:44:29.564Z,85.57
2022-12-12T21:47:14.986Z,85.80
2022-12-12T21:49:58.890Z,87.52
2022-12-12T21:52:44.229Z,87.22
2022-12-12T21:55:28.147Z,88.35
2022-12-12T21:58:12.008Z,88.74
2022-12-12T22:00:55.866Z,89.47
2022-12-12T22:03:41.441Z,88.93
2022-12-12T22:06:27.352Z,89.41
2022-12-12T22:09:12.606Z,91.31
2022-12-12T22:12:03.392Z,91.37
2022-12-12T22:14:48.042Z,91.92
2022-12-12T22:17:31.797Z,91.22
2022-12-12T22:20:17.184Z,90.85
2022-12-12T22:23:00.931Z,91.93
2022-12-12T22:25:44.859Z,91.54
2022-12-12T22:28:29.100Z,92.30
2022-12-12T22:31:12.948Z,93.68
2022-12-12T22:33:59.302Z,93.24
2022-12-12T22:36:45.409Z,92.52
2022-12-12T22:39:29.712Z,92.88
2022-12-12T22:42:13.443Z,93.11
2022-12-12T22:44:57.182Z,92.82
2022-12-12T22:47:40.978Z,94.02
2022-12-12T22:50:24.662Z,94.60
2022-12-12T22:53:09.826Z,94.44
2022-12-12T22:55:53.618Z,93.73
2022-12-12T22:58:37.456Z,94.47
2022-12-12T23:01:22.770Z,94.97
2022-12-12T23:04:07.118Z,95.07
2022-12-12T23:06:51.232Z,94.73
2022-12-12T23:09:36.612Z,94.78
2022-12-12T23:12:20.712Z,95.41
2022-12-12T23:15:05.017Z,94.44
2022-12-12T23:17:48.818Z,94.11
2022-12-12T23:20:32.513Z,95.13
2022-12-12T23:23:16.218Z,94.44
2022-12-12T23:26:03.915Z,95.24
2022-12-12T23:28:48.936Z,95.14
2022-12-12T23:31:34.758Z,94.91
2022-12-12T23:34:22.902Z,95.43
2022-12-12T23:37:06.737Z,96.08
2022-12-12T23:39:51.481Z,94.96
2022-12-12T23:42:36.685Z,96.40
2022-12-12T23:45:20.473Z,96.43
2022-12-12T23:48:04.245Z,95.61
2022-12-12T23:50:48.842Z,96.07
2022-12-12T23:53:33.522Z,94.76
2022-12-12T23:56:17.528Z,94.14
2022-12-12T23:59:03.104Z,93.81
